Flight Track Log - Related Links

Times and Time Zones

All times are in EST time to prevent confusion due to time zone crossing. See the AFL150 flight status page for this flight to view local times or setup timezone preferences in your user account.

Time Position Orientation Groundspeed Altitude Reporting Facility
EST Latitude Longitude Course Direction KTS MPH feet Rate Location/Type
Tue 04:46:00 PM 24.1475 -82.2911 250° West  Level FlightAware Approximate
Tue 04:47:00 PM 24.0534 -82.3333 180° South  Level FlightAware Approximate
Tue 04:48:00 PM 23.9325 -82.3373 183° South  Level FlightAware Approximate
Tue 04:49:00 PM 23.8116 -82.3444 183° South  Level FlightAware Approximate
Tue 04:50:00 PM 23.6908 -82.3512 182° South  Level FlightAware Approximate
Tue 04:51:00 PM 23.5699 -82.3567 182° South  Level FlightAware Approximate
Tue 04:52:00 PM 23.4489 -82.3622 182° South  Level FlightAware Approximate
Tue 04:53:00 PM 23.3280 -82.3677 182° South  Level FlightAware Approximate
Tue 04:54:00 PM 23.2071 -82.3732 182° South  Level FlightAware Approximate
Tue 04:55:00 PM 23.0862 -82.3787 182° South  Level FlightAware Approximate
Tue 04:56:00 PM 22.9891 -82.4091 223° Southwest  Level Estimated
Tue 04:57:00 PM 22.9891 -82.4091 223° Southwest  Level Estimated
Tue 04:58:00 PM 22.9891 -82.4091 223° Southwest  Level Estimated
Tue 04:59:00 PM 22.9891 -82.4091 223° Southwest  Level Estimated
Tue 05:00:00 PM 22.9891 -82.4091 223° Southwest  Level Estimated
Tue 05:01:00 PM 22.9891 -82.4091 223° Southwest  Level Estimated
Tue 05:02:00 PM 22.9891 -82.4091 223° Southwest  Level Estimated
Tue 05:03:00 PM 22.9891 -82.4091 223° Southwest  Level Estimated
Tue 05:04:00 PM 22.9891 -82.4091 223° Southwest  Level Estimated
Tue 05:05:00 PM 22.9891 -82.4091 223° Southwest  Level Estimated
Tue 05:06:00 PM 22.9891 -82.4091 223° Southwest  Level Estimated
Tue 05:07:00 PM 22.9891 -82.4091 223° Southwest  Level Estimated
Tue 05:08:00 PM 22.9891 -82.4091 223° Southwest  Level Estimated
Tue 05:09:00 PM 22.9891 -82.4091 223° Southwest  Level Estimated
Tue 05:10:00 PM 22.9891 -82.4091 223° Southwest  Level Estimated

Login

Don't have an account? Register now (free) for customized features, flight alerts, and more!